sensor_id;sensor_type;location;lat;lon;timestamp;P1;durP1;ratioP1;P2;durP2;ratioP2
74363;SDS011;62797;49.740;10.154;2023-02-17T00:01:17;12.13;;;7.83;;
74363;SDS011;62797;49.740;10.154;2023-02-17T00:03:50;12.90;;;6.93;;
74363;SDS011;62797;49.740;10.154;2023-02-17T00:06:17;18.30;;;8.27;;
74363;SDS011;62797;49.740;10.154;2023-02-17T00:08:44;13.02;;;8.15;;
74363;SDS011;62797;49.740;10.154;2023-02-17T00:11:10;15.60;;;9.15;;
74363;SDS011;62797;49.740;10.154;2023-02-17T00:13:36;13.70;;;7.85;;
74363;SDS011;62797;49.740;10.154;2023-02-17T00:16:10;18.85;;;8.57;;
74363;SDS011;62797;49.740;10.154;2023-02-17T00:18:46;13.07;;;7.47;;
74363;SDS011;62797;49.740;10.154;2023-02-17T00:21:18;17.45;;;9.13;;
74363;SDS011;62797;49.740;10.154;2023-02-17T00:23:45;15.13;;;7.70;;
74363;SDS011;62797;49.740;10.154;2023-02-17T00:26:11;13.48;;;7.47;;
74363;SDS011;62797;49.740;10.154;2023-02-17T00:28:37;17.05;;;8.57;;
74363;SDS011;62797;49.740;10.154;2023-02-17T00:31:11;16.95;;;8.60;;
74363;SDS011;62797;49.740;10.154;2023-02-17T00:33:39;15.63;;;8.43;;
74363;SDS011;62797;49.740;10.154;2023-02-17T00:36:05;20.77;;;9.50;;
74363;SDS011;62797;49.740;10.154;2023-02-17T00:38:32;15.50;;;8.30;;
74363;SDS011;62797;49.740;10.154;2023-02-17T00:40:58;17.83;;;9.38;;
74363;SDS011;62797;49.740;10.154;2023-02-17T00:43:24;18.57;;;9.50;;
74363;SDS011;62797;49.740;10.154;2023-02-17T00:45:50;18.15;;;9.70;;
74363;SDS011;62797;49.740;10.154;2023-02-17T00:48:15;18.83;;;9.80;;
74363;SDS011;62797;49.740;10.154;2023-02-17T00:50:41;17.63;;;9.37;;
74363;SDS011;62797;49.740;10.154;2023-02-17T00:53:06;19.30;;;8.97;;
74363;SDS011;62797;49.740;10.154;2023-02-17T00:55:32;20.20;;;9.30;;
74363;SDS011;62797;49.740;10.154;2023-02-17T00:57:58;19.30;;;9.03;;
74363;SDS011;62797;49.740;10.154;2023-02-17T01:00:23;15.33;;;7.97;;
74363;SDS011;62797;49.740;10.154;2023-02-17T01:02:49;19.52;;;8.55;;
74363;SDS011;62797;49.740;10.154;2023-02-17T01:05:14;18.43;;;9.73;;
74363;SDS011;62797;49.740;10.154;2023-02-17T01:07:40;20.17;;;9.53;;
74363;SDS011;62797;49.740;10.154;2023-02-17T01:10:06;19.40;;;10.73;;
74363;SDS011;62797;49.740;10.154;2023-02-17T01:12:36;17.48;;;9.35;;
74363;SDS011;62797;49.740;10.154;2023-02-17T01:15:02;15.50;;;9.10;;
74363;SDS011;62797;49.740;10.154;2023-02-17T01:17:28;15.38;;;8.73;;
74363;SDS011;62797;49.740;10.154;2023-02-17T01:19:54;18.83;;;10.10;;
74363;SDS011;62797;49.740;10.154;2023-02-17T01:22:19;14.70;;;8.33;;
74363;SDS011;62797;49.740;10.154;2023-02-17T01:24:45;18.30;;;9.97;;
74363;SDS011;62797;49.740;10.154;2023-02-17T01:27:10;15.70;;;9.70;;
74363;SDS011;62797;49.740;10.154;2023-02-17T01:29:36;17.70;;;9.77;;
74363;SDS011;62797;49.740;10.154;2023-02-17T01:32:01;18.27;;;9.37;;
74363;SDS011;62797;49.740;10.154;2023-02-17T01:34:27;15.73;;;9.37;;
74363;SDS011;62797;49.740;10.154;2023-02-17T01:36:52;15.67;;;9.70;;
74363;SDS011;62797;49.740;10.154;2023-02-17T01:39:18;13.90;;;8.60;;
74363;SDS011;62797;49.740;10.154;2023-02-17T01:41:44;15.63;;;8.03;;
74363;SDS011;62797;49.740;10.154;2023-02-17T01:46:44;19.02;;;8.75;;
74363;SDS011;62797;49.740;10.154;2023-02-17T01:51:55;17.63;;;8.48;;
74363;SDS011;62797;49.740;10.154;2023-02-17T01:54:28;17.58;;;9.02;;
74363;SDS011;62797;49.740;10.154;2023-02-17T01:57:05;16.58;;;9.02;;
74363;SDS011;62797;49.740;10.154;2023-02-17T01:59:30;18.00;;;9.07;;
74363;SDS011;62797;49.740;10.154;2023-02-17T02:01:57;19.58;;;9.35;;
74363;SDS011;62797;49.740;10.154;2023-02-17T02:04:27;17.85;;;8.55;;
74363;SDS011;62797;49.740;10.154;2023-02-17T02:06:56;16.90;;;9.43;;
74363;SDS011;62797;49.740;10.154;2023-02-17T02:09:24;15.70;;;8.40;;
74363;SDS011;62797;49.740;10.154;2023-02-17T02:11:55;14.98;;;9.13;;
74363;SDS011;62797;49.740;10.154;2023-02-17T02:14:20;20.53;;;9.37;;
74363;SDS011;62797;49.740;10.154;2023-02-17T02:17:07;16.52;;;8.85;;
74363;SDS011;62797;49.740;10.154;2023-02-17T02:20:02;18.60;;;8.52;;
74363;SDS011;62797;49.740;10.154;2023-02-17T02:28:36;17.38;;;9.05;;
74363;SDS011;62797;49.740;10.154;2023-02-17T02:34:07;17.05;;;9.57;;
74363;SDS011;62797;49.740;10.154;2023-02-17T02:36:37;22.23;;;9.82;;
74363;SDS011;62797;49.740;10.154;2023-02-17T02:39:20;20.73;;;9.25;;
74363;SDS011;62797;49.740;10.154;2023-02-17T02:41:54;15.57;;;9.23;;
74363;SDS011;62797;49.740;10.154;2023-02-17T02:44:22;22.48;;;10.20;;
74363;SDS011;62797;49.740;10.154;2023-02-17T02:46:59;18.27;;;8.90;;
74363;SDS011;62797;49.740;10.154;2023-02-17T02:49:27;14.15;;;8.35;;
74363;SDS011;62797;49.740;10.154;2023-02-17T02:54:27;17.25;;;10.73;;
74363;SDS011;62797;49.740;10.154;2023-02-17T02:57:27;13.18;;;8.40;;
74363;SDS011;62797;49.740;10.154;2023-02-17T03:07:55;15.35;;;8.52;;
74363;SDS011;62797;49.740;10.154;2023-02-17T03:10:29;14.40;;;8.70;;
74363;SDS011;62797;49.740;10.154;2023-02-17T03:12:55;18.70;;;9.47;;
74363;SDS011;62797;49.740;10.154;2023-02-17T03:15:24;13.60;;;8.23;;
74363;SDS011;62797;49.740;10.154;2023-02-17T03:17:55;20.60;;;9.02;;
74363;SDS011;62797;49.740;10.154;2023-02-17T03:20:21;16.55;;;8.68;;
74363;SDS011;62797;49.740;10.154;2023-02-17T03:22:47;19.40;;;8.32;;
74363;SDS011;62797;49.740;10.154;2023-02-17T03:25:13;19.77;;;8.48;;
74363;SDS011;62797;49.740;10.154;2023-02-17T03:30:06;16.40;;;8.65;;
74363;SDS011;62797;49.740;10.154;2023-02-17T03:35:54;17.98;;;8.50;;
74363;SDS011;62797;49.740;10.154;2023-02-17T03:38:19;20.93;;;8.93;;
74363;SDS011;62797;49.740;10.154;2023-02-17T03:40:45;15.77;;;8.60;;
74363;SDS011;62797;49.740;10.154;2023-02-17T03:43:10;18.27;;;9.63;;
74363;SDS011;62797;49.740;10.154;2023-02-17T03:45:36;18.53;;;9.07;;
74363;SDS011;62797;49.740;10.154;2023-02-17T03:48:02;18.83;;;8.70;;
74363;SDS011;62797;49.740;10.154;2023-02-17T03:50:27;17.48;;;9.27;;
74363;SDS011;62797;49.740;10.154;2023-02-17T03:52:53;22.60;;;8.60;;
74363;SDS011;62797;49.740;10.154;2023-02-17T03:55:19;12.50;;;7.67;;
74363;SDS011;62797;49.740;10.154;2023-02-17T03:57:44;17.97;;;9.77;;
74363;SDS011;62797;49.740;10.154;2023-02-17T04:00:10;21.33;;;10.07;;
74363;SDS011;62797;49.740;10.154;2023-02-17T04:02:36;18.85;;;9.40;;
74363;SDS011;62797;49.740;10.154;2023-02-17T04:05:01;14.07;;;8.93;;
74363;SDS011;62797;49.740;10.154;2023-02-17T04:07:27;13.80;;;8.93;;
74363;SDS011;62797;49.740;10.154;2023-02-17T04:09:53;18.20;;;9.07;;
74363;SDS011;62797;49.740;10.154;2023-02-17T04:12:18;14.90;;;8.63;;
74363;SDS011;62797;49.740;10.154;2023-02-17T04:14:44;17.40;;;8.93;;
74363;SDS011;62797;49.740;10.154;2023-02-17T04:17:10;13.97;;;8.23;;
74363;SDS011;62797;49.740;10.154;2023-02-17T04:19:35;19.43;;;8.90;;
74363;SDS011;62797;49.740;10.154;2023-02-17T04:22:01;19.33;;;8.37;;
74363;SDS011;62797;49.740;10.154;2023-02-17T04:24:26;16.00;;;8.33;;
74363;SDS011;62797;49.740;10.154;2023-02-17T04:26:52;22.03;;;10.37;;
74363;SDS011;62797;49.740;10.154;2023-02-17T04:29:17;22.10;;;9.83;;
74363;SDS011;62797;49.740;10.154;2023-02-17T04:31:43;16.53;;;9.03;;
74363;SDS011;62797;49.740;10.154;2023-02-17T04:34:08;21.40;;;8.90;;
74363;SDS011;62797;49.740;10.154;2023-02-17T04:36:34;18.23;;;9.83;;
74363;SDS011;62797;49.740;10.154;2023-02-17T04:38:59;16.33;;;8.00;;
74363;SDS011;62797;49.740;10.154;2023-02-17T04:41:25;15.17;;;7.97;;
74363;SDS011;62797;49.740;10.154;2023-02-17T04:43:50;21.60;;;8.30;;
74363;SDS011;62797;49.740;10.154;2023-02-17T04:46:16;14.80;;;8.30;;
74363;SDS011;62797;49.740;10.154;2023-02-17T04:48:41;15.27;;;8.63;;
74363;SDS011;62797;49.740;10.154;2023-02-17T04:51:07;17.67;;;8.13;;
74363;SDS011;62797;49.740;10.154;2023-02-17T04:53:32;16.20;;;8.23;;
74363;SDS011;62797;49.740;10.154;2023-02-17T04:55:58;18.90;;;9.07;;
74363;SDS011;62797;49.740;10.154;2023-02-17T04:58:23;21.70;;;8.40;;
74363;SDS011;62797;49.740;10.154;2023-02-17T05:00:49;90.00;;;26.77;;
74363;SDS011;62797;49.740;10.154;2023-02-17T05:03:16;29.58;;;12.35;;
74363;SDS011;62797;49.740;10.154;2023-02-17T05:05:42;16.80;;;9.73;;
74363;SDS011;62797;49.740;10.154;2023-02-17T05:08:08;10.40;;;5.75;;
74363;SDS011;62797;49.740;10.154;2023-02-17T05:10:34;19.83;;;8.53;;
74363;SDS011;62797;49.740;10.154;2023-02-17T05:12:59;15.17;;;7.87;;
74363;SDS011;62797;49.740;10.154;2023-02-17T05:15:25;12.63;;;5.70;;
74363;SDS011;62797;49.740;10.154;2023-02-17T05:17:50;14.80;;;8.33;;
74363;SDS011;62797;49.740;10.154;2023-02-17T05:20:16;20.63;;;9.73;;
74363;SDS011;62797;49.740;10.154;2023-02-17T05:22:42;16.38;;;8.40;;
74363;SDS011;62797;49.740;10.154;2023-02-17T05:25:08;20.27;;;8.90;;
74363;SDS011;62797;49.740;10.154;2023-02-17T05:27:33;14.40;;;8.43;;
74363;SDS011;62797;49.740;10.154;2023-02-17T05:29:59;13.17;;;8.10;;
74363;SDS011;62797;49.740;10.154;2023-02-17T05:32:25;18.20;;;7.93;;
74363;SDS011;62797;49.740;10.154;2023-02-17T05:34:50;12.88;;;8.23;;
74363;SDS011;62797;49.740;10.154;2023-02-17T05:37:16;20.07;;;9.33;;
74363;SDS011;62797;49.740;10.154;2023-02-17T05:39:41;15.53;;;7.63;;
74363;SDS011;62797;49.740;10.154;2023-02-17T05:42:07;16.83;;;8.50;;
74363;SDS011;62797;49.740;10.154;2023-02-17T05:44:32;19.03;;;8.50;;
74363;SDS011;62797;49.740;10.154;2023-02-17T05:46:58;17.33;;;6.30;;
74363;SDS011;62797;49.740;10.154;2023-02-17T05:49:23;22.13;;;8.03;;
74363;SDS011;62797;49.740;10.154;2023-02-17T05:51:49;19.37;;;8.77;;
74363;SDS011;62797;49.740;10.154;2023-02-17T05:54:14;17.13;;;6.77;;
74363;SDS011;62797;49.740;10.154;2023-02-17T05:56:40;16.83;;;7.17;;
74363;SDS011;62797;49.740;10.154;2023-02-17T05:59:05;16.37;;;8.53;;
74363;SDS011;62797;49.740;10.154;2023-02-17T06:01:31;17.80;;;7.80;;
74363;SDS011;62797;49.740;10.154;2023-02-17T06:03:56;20.03;;;8.77;;
74363;SDS011;62797;49.740;10.154;2023-02-17T06:06:22;15.47;;;8.27;;
74363;SDS011;62797;49.740;10.154;2023-02-17T06:08:48;16.57;;;8.20;;
74363;SDS011;62797;49.740;10.154;2023-02-17T06:11:13;21.17;;;9.43;;
74363;SDS011;62797;49.740;10.154;2023-02-17T06:13:39;19.03;;;10.07;;
74363;SDS011;62797;49.740;10.154;2023-02-17T06:16:04;21.80;;;8.80;;
74363;SDS011;62797;49.740;10.154;2023-02-17T06:18:30;18.83;;;9.13;;
74363;SDS011;62797;49.740;10.154;2023-02-17T06:20:56;21.70;;;8.97;;
74363;SDS011;62797;49.740;10.154;2023-02-17T06:23:23;16.30;;;8.82;;
74363;SDS011;62797;49.740;10.154;2023-02-17T06:28:15;20.75;;;9.20;;
74363;SDS011;62797;49.740;10.154;2023-02-17T06:30:40;16.25;;;10.07;;
74363;SDS011;62797;49.740;10.154;2023-02-17T06:33:06;11.43;;;7.40;;
74363;SDS011;62797;49.740;10.154;2023-02-17T06:35:32;14.02;;;7.70;;
74363;SDS011;62797;49.740;10.154;2023-02-17T06:37:58;14.83;;;8.23;;
74363;SDS011;62797;49.740;10.154;2023-02-17T06:40:23;16.70;;;10.07;;
74363;SDS011;62797;49.740;10.154;2023-02-17T06:42:49;21.97;;;10.60;;
74363;SDS011;62797;49.740;10.154;2023-02-17T06:45:15;17.73;;;9.53;;
74363;SDS011;62797;49.740;10.154;2023-02-17T06:47:40;21.30;;;9.97;;
74363;SDS011;62797;49.740;10.154;2023-02-17T06:50:06;17.73;;;8.90;;
74363;SDS011;62797;49.740;10.154;2023-02-17T06:52:32;17.10;;;11.05;;
74363;SDS011;62797;49.740;10.154;2023-02-17T06:54:58;15.77;;;10.57;;
74363;SDS011;62797;49.740;10.154;2023-02-17T06:57:23;15.97;;;9.67;;
74363;SDS011;62797;49.740;10.154;2023-02-17T06:59:49;21.43;;;11.03;;
74363;SDS011;62797;49.740;10.154;2023-02-17T07:02:14;19.37;;;10.73;;
74363;SDS011;62797;49.740;10.154;2023-02-17T07:04:40;25.47;;;10.17;;
74363;SDS011;62797;49.740;10.154;2023-02-17T07:09:32;17.20;;;11.02;;
74363;SDS011;62797;49.740;10.154;2023-02-17T07:11:58;15.45;;;10.75;;
74363;SDS011;62797;49.740;10.154;2023-02-17T07:14:24;16.20;;;10.07;;
74363;SDS011;62797;49.740;10.154;2023-02-17T07:16:50;17.35;;;10.02;;
74363;SDS011;62797;49.740;10.154;2023-02-17T07:19:16;21.38;;;9.80;;
74363;SDS011;62797;49.740;10.154;2023-02-17T07:21:41;17.90;;;8.80;;
74363;SDS011;62797;49.740;10.154;2023-02-17T07:24:07;16.87;;;9.20;;
74363;SDS011;62797;49.740;10.154;2023-02-17T07:26:39;14.67;;;9.63;;
74363;SDS011;62797;49.740;10.154;2023-02-17T07:29:05;20.23;;;9.77;;
74363;SDS011;62797;49.740;10.154;2023-02-17T07:31:32;14.93;;;9.25;;
74363;SDS011;62797;49.740;10.154;2023-02-17T07:33:59;11.88;;;9.25;;
74363;SDS011;62797;49.740;10.154;2023-02-17T07:36:25;17.77;;;8.77;;
74363;SDS011;62797;49.740;10.154;2023-02-17T07:38:51;15.33;;;9.30;;
74363;SDS011;62797;49.740;10.154;2023-02-17T07:41:18;10.53;;;7.70;;
74363;SDS011;62797;49.740;10.154;2023-02-17T07:43:46;12.77;;;7.53;;
74363;SDS011;62797;49.740;10.154;2023-02-17T07:48:38;14.63;;;7.50;;
74363;SDS011;62797;49.740;10.154;2023-02-17T07:51:04;13.13;;;7.27;;
74363;SDS011;62797;49.740;10.154;2023-02-17T07:53:31;10.80;;;7.13;;
74363;SDS011;62797;49.740;10.154;2023-02-17T07:55:57;10.90;;;6.70;;
74363;SDS011;62797;49.740;10.154;2023-02-17T07:58:23;9.53;;;6.47;;
74363;SDS011;62797;49.740;10.154;2023-02-17T08:00:48;11.17;;;6.80;;
74363;SDS011;62797;49.740;10.154;2023-02-17T08:03:14;9.50;;;5.33;;
74363;SDS011;62797;49.740;10.154;2023-02-17T08:05:40;13.37;;;6.87;;
74363;SDS011;62797;49.740;10.154;2023-02-17T08:08:06;15.85;;;7.28;;
74363;SDS011;62797;49.740;10.154;2023-02-17T08:10:50;11.00;;;6.63;;
74363;SDS011;62797;49.740;10.154;2023-02-17T08:13:34;10.02;;;6.15;;
74363;SDS011;62797;49.740;10.154;2023-02-17T08:16:00;11.43;;;6.00;;
74363;SDS011;62797;49.740;10.154;2023-02-17T08:18:25;8.63;;;5.13;;
74363;SDS011;62797;49.740;10.154;2023-02-17T08:20:51;9.77;;;5.27;;
74363;SDS011;62797;49.740;10.154;2023-02-17T08:23:18;8.53;;;6.00;;
74363;SDS011;62797;49.740;10.154;2023-02-17T08:25:45;9.90;;;5.70;;
74363;SDS011;62797;49.740;10.154;2023-02-17T08:28:10;15.33;;;5.37;;
74363;SDS011;62797;49.740;10.154;2023-02-17T08:30:36;9.15;;;5.07;;
74363;SDS011;62797;49.740;10.154;2023-02-17T08:33:03;12.37;;;5.27;;
74363;SDS011;62797;49.740;10.154;2023-02-17T08:35:29;18.13;;;6.05;;
74363;SDS011;62797;49.740;10.154;2023-02-17T08:37:55;10.13;;;6.20;;
74363;SDS011;62797;49.740;10.154;2023-02-17T08:40:20;7.63;;;5.20;;
74363;SDS011;62797;49.740;10.154;2023-02-17T08:42:46;9.60;;;5.35;;
74363;SDS011;62797;49.740;10.154;2023-02-17T08:45:13;9.07;;;5.20;;
74363;SDS011;62797;49.740;10.154;2023-02-17T08:47:40;11.10;;;6.05;;
74363;SDS011;62797;49.740;10.154;2023-02-17T08:50:06;6.63;;;4.50;;
74363;SDS011;62797;49.740;10.154;2023-02-17T08:52:33;11.85;;;5.65;;
74363;SDS011;62797;49.740;10.154;2023-02-17T08:54:59;7.63;;;4.80;;
74363;SDS011;62797;49.740;10.154;2023-02-17T08:57:24;11.20;;;4.90;;
74363;SDS011;62797;49.740;10.154;2023-02-17T08:59:50;8.63;;;5.10;;
74363;SDS011;62797;49.740;10.154;2023-02-17T09:02:16;10.32;;;4.75;;
74363;SDS011;62797;49.740;10.154;2023-02-17T09:04:42;10.73;;;4.77;;
74363;SDS011;62797;49.740;10.154;2023-02-17T09:07:08;9.30;;;5.07;;
74363;SDS011;62797;49.740;10.154;2023-02-17T09:09:35;9.07;;;5.40;;
74363;SDS011;62797;49.740;10.154;2023-02-17T09:12:00;10.40;;;5.50;;
74363;SDS011;62797;49.740;10.154;2023-02-17T09:14:26;11.53;;;5.57;;
74363;SDS011;62797;49.740;10.154;2023-02-17T09:16:52;11.23;;;5.15;;
74363;SDS011;62797;49.740;10.154;2023-02-17T09:21:44;11.00;;;5.13;;
74363;SDS011;62797;49.740;10.154;2023-02-17T09:24:10;9.57;;;5.03;;
74363;SDS011;62797;49.740;10.154;2023-02-17T09:26:36;12.93;;;5.80;;
74363;SDS011;62797;49.740;10.154;2023-02-17T09:29:02;12.43;;;5.70;;
74363;SDS011;62797;49.740;10.154;2023-02-17T09:33:54;8.98;;;5.03;;
74363;SDS011;62797;49.740;10.154;2023-02-17T09:36:21;7.90;;;4.53;;
74363;SDS011;62797;49.740;10.154;2023-02-17T09:38:49;8.00;;;4.70;;
74363;SDS011;62797;49.740;10.154;2023-02-17T09:41:17;9.98;;;5.05;;
74363;SDS011;62797;49.740;10.154;2023-02-17T09:43:49;26.98;;;6.45;;
74363;SDS011;62797;49.740;10.154;2023-02-17T09:49:12;9.20;;;4.95;;
74363;SDS011;62797;49.740;10.154;2023-02-17T09:51:43;8.70;;;4.40;;
74363;SDS011;62797;49.740;10.154;2023-02-17T09:56:57;8.20;;;4.30;;
74363;SDS011;62797;49.740;10.154;2023-02-17T09:59:42;7.35;;;4.60;;
74363;SDS011;62797;49.740;10.154;2023-02-17T10:02:13;6.53;;;4.82;;
74363;SDS011;62797;49.740;10.154;2023-02-17T10:04:45;7.03;;;4.30;;
74363;SDS011;62797;49.740;10.154;2023-02-17T10:07:20;11.15;;;5.75;;
74363;SDS011;62797;49.740;10.154;2023-02-17T10:10:02;11.57;;;4.60;;
74363;SDS011;62797;49.740;10.154;2023-02-17T10:12:35;10.48;;;5.22;;
74363;SDS011;62797;49.740;10.154;2023-02-17T10:17:36;7.40;;;3.38;;
74363;SDS011;62797;49.740;10.154;2023-02-17T10:25:21;5.40;;;3.30;;
74363;SDS011;62797;49.740;10.154;2023-02-17T10:28:07;7.13;;;3.78;;
74363;SDS011;62797;49.740;10.154;2023-02-17T10:30:37;4.73;;;3.30;;
74363;SDS011;62797;49.740;10.154;2023-02-17T10:36:06;10.75;;;3.92;;
74363;SDS011;62797;49.740;10.154;2023-02-17T10:38:51;5.30;;;3.60;;
74363;SDS011;62797;49.740;10.154;2023-02-17T10:41:30;5.28;;;3.20;;
74363;SDS011;62797;49.740;10.154;2023-02-17T10:43:58;6.03;;;3.28;;
74363;SDS011;62797;49.740;10.154;2023-02-17T10:46:27;7.03;;;3.40;;
74363;SDS011;62797;49.740;10.154;2023-02-17T10:48:55;3.92;;;3.53;;
74363;SDS011;62797;49.740;10.154;2023-02-17T10:51:27;9.60;;;3.92;;
74363;SDS011;62797;49.740;10.154;2023-02-17T10:54:11;5.68;;;3.70;;
74363;SDS011;62797;49.740;10.154;2023-02-17T10:56:49;5.57;;;3.00;;
74363;SDS011;62797;49.740;10.154;2023-02-17T11:01:47;4.03;;;3.05;;
74363;SDS011;62797;49.740;10.154;2023-02-17T11:04:13;4.57;;;3.80;;
74363;SDS011;62797;49.740;10.154;2023-02-17T11:06:43;8.17;;;3.37;;
74363;SDS011;62797;49.740;10.154;2023-02-17T11:09:20;5.53;;;3.08;;
74363;SDS011;62797;49.740;10.154;2023-02-17T11:11:53;4.57;;;3.25;;
74363;SDS011;62797;49.740;10.154;2023-02-17T11:14:27;5.07;;;2.75;;
74363;SDS011;62797;49.740;10.154;2023-02-17T11:16:59;3.78;;;3.08;;
74363;SDS011;62797;49.740;10.154;2023-02-17T11:19:28;6.63;;;3.03;;
74363;SDS011;62797;49.740;10.154;2023-02-17T11:21:58;3.53;;;2.60;;
74363;SDS011;62797;49.740;10.154;2023-02-17T11:24:26;4.45;;;3.17;;
74363;SDS011;62797;49.740;10.154;2023-02-17T11:27:04;4.97;;;2.65;;
74363;SDS011;62797;49.740;10.154;2023-02-17T11:29:33;5.97;;;3.30;;
74363;SDS011;62797;49.740;10.154;2023-02-17T11:32:05;4.10;;;2.80;;
74363;SDS011;62797;49.740;10.154;2023-02-17T11:34:37;3.40;;;2.67;;
74363;SDS011;62797;49.740;10.154;2023-02-17T11:39:47;3.00;;;2.60;;
74363;SDS011;62797;49.740;10.154;2023-02-17T11:42:15;3.40;;;2.60;;
74363;SDS011;62797;49.740;10.154;2023-02-17T11:44:45;4.75;;;2.85;;
74363;SDS011;62797;49.740;10.154;2023-02-17T11:47:14;2.38;;;2.15;;
74363;SDS011;62797;49.740;10.154;2023-02-17T11:58:33;3.35;;;2.83;;
74363;SDS011;62797;49.740;10.154;2023-02-17T12:12:25;3.47;;;2.50;;
74363;SDS011;62797;49.740;10.154;2023-02-17T12:21:00;4.50;;;4.00;;
74363;SDS011;62797;49.740;10.154;2023-02-17T12:26:24;4.28;;;3.50;;
74363;SDS011;62797;49.740;10.154;2023-02-17T12:29:05;5.82;;;3.22;;
74363;SDS011;62797;49.740;10.154;2023-02-17T12:31:54;6.20;;;4.28;;
74363;SDS011;62797;49.740;10.154;2023-02-17T12:34:34;6.18;;;4.13;;
74363;SDS011;62797;49.740;10.154;2023-02-17T12:37:24;5.97;;;4.40;;
74363;SDS011;62797;49.740;10.154;2023-02-17T12:39:55;5.10;;;3.60;;
74363;SDS011;62797;49.740;10.154;2023-02-17T12:42:26;5.60;;;3.80;;
74363;SDS011;62797;49.740;10.154;2023-02-17T12:45:09;8.15;;;3.95;;
74363;SDS011;62797;49.740;10.154;2023-02-17T12:47:52;7.93;;;4.20;;
74363;SDS011;62797;49.740;10.154;2023-02-17T12:50:36;5.95;;;4.25;;
74363;SDS011;62797;49.740;10.154;2023-02-17T12:53:17;6.15;;;3.97;;
74363;SDS011;62797;49.740;10.154;2023-02-17T12:55:58;4.72;;;3.92;;
74363;SDS011;62797;49.740;10.154;2023-02-17T12:58:28;6.55;;;4.30;;
74363;SDS011;62797;49.740;10.154;2023-02-17T13:01:05;4.93;;;3.70;;
74363;SDS011;62797;49.740;10.154;2023-02-17T13:03:35;5.05;;;3.95;;
74363;SDS011;62797;49.740;10.154;2023-02-17T13:06:03;4.95;;;4.05;;
74363;SDS011;62797;49.740;10.154;2023-02-17T13:11:32;5.10;;;4.10;;
74363;SDS011;62797;49.740;10.154;2023-02-17T13:17:03;5.03;;;3.50;;
74363;SDS011;62797;49.740;10.154;2023-02-17T13:19:30;4.87;;;3.90;;
74363;SDS011;62797;49.740;10.154;2023-02-17T13:21:58;5.70;;;3.78;;
74363;SDS011;62797;49.740;10.154;2023-02-17T13:24:30;4.57;;;3.78;;
74363;SDS011;62797;49.740;10.154;2023-02-17T13:29:57;6.20;;;3.70;;
74363;SDS011;62797;49.740;10.154;2023-02-17T13:32:28;5.82;;;3.88;;
74363;SDS011;62797;49.740;10.154;2023-02-17T13:35:06;12.75;;;4.53;;
74363;SDS011;62797;49.740;10.154;2023-02-17T13:37:52;5.95;;;3.55;;
74363;SDS011;62797;49.740;10.154;2023-02-17T13:45:16;7.03;;;3.03;;
74363;SDS011;62797;49.740;10.154;2023-02-17T13:47:58;3.60;;;3.20;;
74363;SDS011;62797;49.740;10.154;2023-02-17T13:50:35;4.00;;;3.03;;
74363;SDS011;62797;49.740;10.154;2023-02-17T13:53:19;6.28;;;3.40;;
74363;SDS011;62797;49.740;10.154;2023-02-17T13:55:48;5.20;;;3.35;;
74363;SDS011;62797;49.740;10.154;2023-02-17T13:58:13;3.77;;;3.30;;
74363;SDS011;62797;49.740;10.154;2023-02-17T14:00:44;6.32;;;3.05;;
74363;SDS011;62797;49.740;10.154;2023-02-17T14:03:17;6.13;;;3.60;;
74363;SDS011;62797;49.740;10.154;2023-02-17T14:05:49;4.18;;;2.78;;
74363;SDS011;62797;49.740;10.154;2023-02-17T14:08:19;4.43;;;3.20;;
74363;SDS011;62797;49.740;10.154;2023-02-17T14:11:09;7.68;;;3.28;;
74363;SDS011;62797;49.740;10.154;2023-02-17T14:13:42;3.83;;;2.80;;
74363;SDS011;62797;49.740;10.154;2023-02-17T14:19:01;4.07;;;3.60;;
74363;SDS011;62797;49.740;10.154;2023-02-17T14:21:36;5.43;;;3.05;;
74363;SDS011;62797;49.740;10.154;2023-02-17T14:24:03;3.63;;;2.75;;
74363;SDS011;62797;49.740;10.154;2023-02-17T14:26:54;10.15;;;2.78;;
74363;SDS011;62797;49.740;10.154;2023-02-17T14:29:20;6.45;;;2.60;;
74363;SDS011;62797;49.740;10.154;2023-02-17T14:34:29;3.92;;;2.95;;
74363;SDS011;62797;49.740;10.154;2023-02-17T14:37:06;7.20;;;3.15;;
74363;SDS011;62797;49.740;10.154;2023-02-17T14:39:42;6.85;;;3.65;;
74363;SDS011;62797;49.740;10.154;2023-02-17T14:42:07;8.17;;;3.73;;
74363;SDS011;62797;49.740;10.154;2023-02-17T14:44:33;4.20;;;3.30;;
74363;SDS011;62797;49.740;10.154;2023-02-17T14:46:58;6.03;;;3.10;;
74363;SDS011;62797;49.740;10.154;2023-02-17T14:49:24;4.77;;;3.67;;
74363;SDS011;62797;49.740;10.154;2023-02-17T14:51:50;4.73;;;3.37;;
74363;SDS011;62797;49.740;10.154;2023-02-17T14:54:16;3.87;;;3.43;;
74363;SDS011;62797;49.740;10.154;2023-02-17T14:56:43;4.93;;;3.30;;
74363;SDS011;62797;49.740;10.154;2023-02-17T14:59:16;4.13;;;3.35;;
74363;SDS011;62797;49.740;10.154;2023-02-17T15:01:42;4.40;;;3.40;;
74363;SDS011;62797;49.740;10.154;2023-02-17T15:04:07;3.37;;;3.07;;
74363;SDS011;62797;49.740;10.154;2023-02-17T15:06:40;5.07;;;3.80;;
74363;SDS011;62797;49.740;10.154;2023-02-17T15:09:08;6.43;;;4.35;;
74363;SDS011;62797;49.740;10.154;2023-02-17T15:11:38;7.72;;;3.58;;
74363;SDS011;62797;49.740;10.154;2023-02-17T15:14:06;6.20;;;4.80;;
74363;SDS011;62797;49.740;10.154;2023-02-17T15:16:38;4.25;;;3.05;;
74363;SDS011;62797;49.740;10.154;2023-02-17T15:19:03;20.90;;;3.03;;
74363;SDS011;62797;49.740;10.154;2023-02-17T15:21:30;5.63;;;3.87;;
74363;SDS011;62797;49.740;10.154;2023-02-17T15:23:58;8.00;;;3.80;;
74363;SDS011;62797;49.740;10.154;2023-02-17T15:26:26;4.80;;;3.72;;
74363;SDS011;62797;49.740;10.154;2023-02-17T15:28:54;4.53;;;3.22;;
74363;SDS011;62797;49.740;10.154;2023-02-17T15:31:21;3.42;;;3.13;;
74363;SDS011;62797;49.740;10.154;2023-02-17T15:33:48;4.53;;;3.10;;
74363;SDS011;62797;49.740;10.154;2023-02-17T15:36:23;5.13;;;3.75;;
74363;SDS011;62797;49.740;10.154;2023-02-17T15:38:49;4.57;;;3.05;;
74363;SDS011;62797;49.740;10.154;2023-02-17T15:41:16;3.72;;;3.10;;
74363;SDS011;62797;49.740;10.154;2023-02-17T15:43:49;4.32;;;3.17;;
74363;SDS011;62797;49.740;10.154;2023-02-17T15:46:17;4.50;;;3.10;;
74363;SDS011;62797;49.740;10.154;2023-02-17T15:48:44;10.43;;;4.28;;
74363;SDS011;62797;49.740;10.154;2023-02-17T15:51:13;4.45;;;3.25;;
74363;SDS011;62797;49.740;10.154;2023-02-17T15:53:40;4.18;;;2.60;;
74363;SDS011;62797;49.740;10.154;2023-02-17T15:58:47;3.75;;;3.17;;
74363;SDS011;62797;49.740;10.154;2023-02-17T16:03:51;5.35;;;3.90;;
74363;SDS011;62797;49.740;10.154;2023-02-17T16:06:17;4.97;;;2.80;;
74363;SDS011;62797;49.740;10.154;2023-02-17T16:08:43;4.73;;;3.07;;
74363;SDS011;62797;49.740;10.154;2023-02-17T16:11:12;5.37;;;3.27;;
74363;SDS011;62797;49.740;10.154;2023-02-17T16:13:39;3.63;;;2.80;;
74363;SDS011;62797;49.740;10.154;2023-02-17T16:16:14;5.78;;;3.58;;
74363;SDS011;62797;49.740;10.154;2023-02-17T16:18:59;8.35;;;3.47;;
74363;SDS011;62797;49.740;10.154;2023-02-17T16:21:25;6.40;;;3.50;;
74363;SDS011;62797;49.740;10.154;2023-02-17T16:23:51;4.18;;;3.30;;
74363;SDS011;62797;49.740;10.154;2023-02-17T16:26:25;7.43;;;4.10;;
74363;SDS011;62797;49.740;10.154;2023-02-17T16:28:52;5.38;;;3.55;;
74363;SDS011;62797;49.740;10.154;2023-02-17T16:31:18;6.82;;;3.05;;
74363;SDS011;62797;49.740;10.154;2023-02-17T16:33:44;4.70;;;3.25;;